createdAt,value
2023-03-02T00:02:37.472Z,-4.16
2023-03-02T00:05:24.360Z,-4.18
2023-03-02T00:07:57.503Z,-4.22
2023-03-02T00:10:45.393Z,-4.27
2023-03-02T00:13:26.386Z,-4.29
2023-03-02T00:16:20.486Z,-4.27
2023-03-02T00:19:07.389Z,-4.27
2023-03-02T00:21:41.303Z,-4.25
2023-03-02T00:24:28.391Z,-4.26
2023-03-02T00:27:01.478Z,-4.28
2023-03-02T00:29:48.409Z,-4.26
2023-03-02T00:32:28.481Z,-4.26
2023-03-02T00:35:22.436Z,-4.23
2023-03-02T00:38:16.357Z,-4.18
2023-03-02T00:41:10.401Z,-4.15
2023-03-02T00:43:58.374Z,-4.15
2023-03-02T00:46:39.488Z,-4.19
2023-03-02T00:49:26.393Z,-4.20
2023-03-02T00:51:59.686Z,-4.21
2023-03-02T00:54:46.379Z,-4.23
2023-03-02T00:57:19.527Z,-4.29
2023-03-02T01:00:06.385Z,-4.28
2023-03-02T01:02:44.349Z,-4.28
2023-03-02T01:05:31.422Z,-4.25
2023-03-02T01:08:04.486Z,-4.27
2023-03-02T01:10:53.912Z,-4.31
2023-03-02T01:13:27.472Z,-4.33
2023-03-02T01:16:14.467Z,-4.34
2023-03-02T01:18:47.529Z,-4.38
2023-03-02T01:21:34.384Z,-4.41
2023-03-02T01:24:07.501Z,-4.39
2023-03-02T01:26:54.394Z,-4.41
2023-03-02T01:29:35.415Z,-4.43
2023-03-02T01:32:29.455Z,-4.48
2023-03-02T01:35:16.394Z,-4.52
2023-03-02T01:37:49.611Z,-4.53
2023-03-02T01:40:36.846Z,-4.60
2023-03-02T01:43:19.514Z,-4.62
2023-03-02T01:46:10.437Z,-4.59
2023-03-02T01:49:18.391Z,-4.60
2023-03-02T01:52:05.407Z,-4.65
2023-03-02T01:54:38.521Z,-4.71
2023-03-02T01:57:31.743Z,-4.76
2023-03-02T02:00:19.535Z,-4.75
2023-03-02T02:03:18.432Z,-4.71
2023-03-02T02:06:12.452Z,-4.72
2023-03-02T02:08:45.616Z,-4.76
2023-03-02T02:11:32.434Z,-4.82
2023-03-02T02:14:15.405Z,-4.85
2023-03-02T02:17:09.425Z,-4.85
2023-03-02T02:20:26.649Z,-4.89
2023-03-02T02:23:20.523Z,-4.90
2023-03-02T02:26:44.415Z,-4.92
2023-03-02T02:29:52.407Z,-4.89
2023-03-02T02:32:44.561Z,-4.87
2023-03-02T02:35:36.499Z,-4.88
2023-03-02T02:38:34.507Z,-4.95
2023-03-02T02:41:28.455Z,-5.00
2023-03-02T02:44:09.428Z,-5.00
2023-03-02T02:46:56.413Z,-4.98
2023-03-02T02:49:42.538Z,-4.98
2023-03-02T02:52:32.411Z,-4.99
2023-03-02T02:55:05.616Z,-4.98
2023-03-02T02:57:52.412Z,-4.94
2023-03-02T03:00:28.509Z,-4.93
2023-03-02T03:03:35.447Z,-5.00
2023-03-02T03:06:12.584Z,-5.01
2023-03-02T03:09:05.430Z,-4.98
2023-03-02T03:11:41.561Z,-4.97
2023-03-02T03:14:35.422Z,-4.98
2023-03-02T03:17:19.439Z,-5.04
2023-03-02T03:20:13.428Z,-5.09
2023-03-02T03:23:00.436Z,-5.11
2023-03-02T03:25:35.068Z,-5.12
2023-03-02T03:28:21.518Z,-5.12
2023-03-02T03:30:54.635Z,-5.07
2023-03-02T03:33:41.420Z,-5.05
2023-03-02T03:36:14.567Z,-5.02
2023-03-02T03:39:01.496Z,-5.02
2023-03-02T03:41:34.592Z,-5.04
2023-03-02T03:44:21.415Z,-5.10
2023-03-02T03:46:54.535Z,-5.16
2023-03-02T03:49:44.454Z,-5.22
2023-03-02T03:52:17.522Z,-5.26
2023-03-02T03:55:07.440Z,-5.29
2023-03-02T03:57:47.440Z,-5.26
2023-03-02T04:00:41.431Z,-5.22
2023-03-02T04:03:28.438Z,-5.23
2023-03-02T04:06:08.429Z,-5.26
2023-03-02T04:09:02.480Z,-5.27
2023-03-02T04:11:51.439Z,-5.29
2023-03-02T04:14:26.626Z,-5.35
2023-03-02T04:17:13.429Z,-5.35
2023-03-02T04:19:46.563Z,-5.35
2023-03-02T04:22:33.436Z,-5.35
2023-03-02T04:25:06.566Z,-5.35
2023-03-02T04:27:55.436Z,-5.35
2023-03-02T04:30:33.259Z,-5.40
2023-03-02T04:33:20.468Z,-5.46
2023-03-02T04:36:01.590Z,-5.49
2023-03-02T04:38:55.504Z,-5.54
2023-03-02T04:41:49.447Z,-5.58
2023-03-02T04:44:36.439Z,-5.57
2023-03-02T04:47:09.609Z,-5.53
2023-03-02T04:50:01.454Z,-5.54
2023-03-02T04:52:41.657Z,-5.55
2023-03-02T04:55:37.510Z,-5.59
2023-03-02T04:58:24.432Z,-5.58
2023-03-02T05:01:02.177Z,-5.55
2023-03-02T05:03:48.465Z,-5.52
2023-03-02T05:06:21.942Z,-5.52
2023-03-02T05:09:08.502Z,-5.56
2023-03-02T05:11:48.472Z,-5.58
2023-03-02T05:14:45.778Z,-5.59
2023-03-02T05:17:32.449Z,-5.61
2023-03-02T05:20:07.404Z,-5.64
2023-03-02T05:22:54.478Z,-5.67
2023-03-02T05:25:35.525Z,-5.68
2023-03-02T05:28:30.837Z,-5.63
2023-03-02T05:31:25.465Z,-5.54
2023-03-02T05:34:05.515Z,-5.56
2023-03-02T05:36:59.516Z,-5.58
2023-03-02T05:39:53.543Z,-5.61
2023-03-02T05:42:47.525Z,-5.62
2023-03-02T05:45:45.510Z,-5.58
2023-03-02T05:48:21.612Z,-5.54
2023-03-02T05:51:08.483Z,-5.49
2023-03-02T05:53:41.665Z,-5.49
2023-03-02T05:56:29.516Z,-5.50
2023-03-02T05:59:02.647Z,-5.50
2023-03-02T06:01:49.484Z,-5.47
2023-03-02T06:04:22.631Z,-5.45
2023-03-02T06:07:09.511Z,-5.46
2023-03-02T06:09:42.572Z,-5.43
2023-03-02T06:12:29.511Z,-5.39
2023-03-02T06:15:02.650Z,-5.38
2023-03-02T06:17:49.521Z,-5.33
2023-03-02T06:20:30.483Z,-5.25
2023-03-02T06:23:20.477Z,-5.08
2023-03-02T06:25:53.706Z,-4.87
2023-03-02T06:28:52.037Z,-4.65
2023-03-02T06:31:26.673Z,-4.47
2023-03-02T06:34:13.517Z,-4.22
2023-03-02T06:36:53.530Z,-3.99
2023-03-02T06:39:47.515Z,-3.77
2023-03-02T06:42:34.471Z,-3.57
2023-03-02T06:45:07.661Z,-3.39
2023-03-02T06:47:54.536Z,-3.21
2023-03-02T06:50:28.275Z,-3.03
2023-03-02T06:53:14.595Z,-2.83
2023-03-02T06:55:47.670Z,-2.69
2023-03-02T06:58:34.547Z,-2.59
2023-03-02T07:01:14.560Z,-2.48
2023-03-02T07:04:01.563Z,-2.44
2023-03-02T07:06:34.691Z,-2.39
2023-03-02T07:09:21.522Z,-2.33
2023-03-02T07:11:55.613Z,-2.31
2023-03-02T07:14:43.512Z,-2.25
2023-03-02T07:17:16.640Z,-2.24
2023-03-02T07:20:03.512Z,-2.22
2023-03-02T07:22:43.511Z,-2.15
2023-03-02T07:25:37.513Z,-2.09
2023-03-02T07:28:31.513Z,-2.02
2023-03-02T07:31:18.632Z,-1.94
2023-03-02T07:33:58.541Z,-1.86
2023-03-02T07:36:45.514Z,-1.78
2023-03-02T07:39:18.672Z,-1.64
2023-03-02T07:42:06.532Z,-1.42
2023-03-02T07:44:46.538Z,-1.26
2023-03-02T07:47:40.541Z,-1.13
2023-03-02T07:50:27.513Z,-1.00
2023-03-02T07:53:07.543Z,-0.87
2023-03-02T07:56:01.512Z,-0.70
2023-03-02T07:58:48.547Z,-0.55
2023-03-02T08:01:28.564Z,-0.33
2023-03-02T08:04:16.838Z,-0.10
2023-03-02T08:06:49.658Z,0.07
2023-03-02T08:09:36.529Z,0.16
2023-03-02T08:12:16.562Z,0.28
2023-03-02T08:15:10.538Z,0.45
2023-03-02T08:17:57.536Z,0.55
2023-03-02T08:20:31.614Z,0.68
2023-03-02T08:23:18.541Z,0.77
2023-03-02T08:25:51.658Z,0.85
2023-03-02T08:28:38.539Z,0.93
2023-03-02T08:31:12.763Z,1.04
2023-03-02T08:33:59.532Z,1.16
2023-03-02T08:36:32.897Z,1.29
2023-03-02T08:39:29.131Z,1.46
2023-03-02T08:42:15.566Z,1.67
2023-03-02T08:44:48.657Z,1.83
2023-03-02T08:47:35.526Z,2.03
2023-03-02T08:50:08.692Z,2.19
2023-03-02T08:52:55.523Z,2.42
2023-03-02T08:55:28.700Z,2.68
2023-03-02T08:58:15.520Z,2.99
2023-03-02T09:00:48.783Z,3.29
2023-03-02T09:03:35.516Z,3.68
2023-03-02T09:06:08.638Z,4.00
2023-03-02T09:08:55.535Z,4.36
2023-03-02T09:11:28.627Z,4.73
2023-03-02T09:14:15.547Z,5.06
2023-03-02T09:16:55.597Z,5.40
2023-03-02T09:19:48.580Z,5.69
2023-03-02T09:22:21.696Z,5.84
2023-03-02T09:25:09.537Z,5.94
2023-03-02T09:27:49.566Z,5.97
2023-03-02T09:30:43.531Z,6.06
2023-03-02T09:33:30.595Z,6.09
2023-03-02T09:36:03.655Z,6.18
2023-03-02T09:38:59.451Z,6.16
2023-03-02T09:42:12.612Z,6.13
2023-03-02T09:45:15.564Z,6.16
2023-03-02T09:48:10.604Z,6.09
2023-03-02T09:51:01.718Z,6.03
2023-03-02T09:54:07.568Z,5.92
2023-03-02T09:56:44.856Z,5.79
2023-03-02T09:59:51.613Z,5.63
2023-03-02T10:02:42.654Z,5.51
2023-03-02T10:05:54.575Z,5.40
2023-03-02T10:08:44.597Z,5.30
2023-03-02T10:11:45.703Z,5.24
2023-03-02T10:14:48.593Z,5.13
2023-03-02T10:18:09.630Z,5.04
2023-03-02T10:21:28.606Z,4.94
2023-03-02T10:24:55.447Z,4.88
2023-03-02T10:27:48.632Z,4.85
2023-03-02T10:30:43.772Z,4.84
2023-03-02T10:33:30.587Z,4.82
2023-03-02T10:36:03.709Z,4.74
2023-03-02T10:38:57.624Z,4.70
2023-03-02T10:41:50.713Z,4.73
2023-03-02T10:44:32.698Z,4.75
2023-03-02T10:47:45.617Z,4.75
2023-03-02T10:50:37.666Z,4.84
2023-03-02T10:53:32.605Z,4.87
2023-03-02T10:56:38.598Z,4.89
2023-03-02T10:59:48.685Z,4.93
2023-03-02T11:02:36.599Z,5.00
2023-03-02T11:05:41.616Z,5.01
2023-03-02T11:08:40.590Z,5.05
2023-03-02T11:11:30.736Z,5.09
2023-03-02T11:14:18.007Z,5.10
2023-03-02T11:17:03.308Z,5.11
2023-03-02T11:19:45.702Z,5.13
2023-03-02T11:22:39.623Z,5.09
2023-03-02T11:25:29.714Z,5.09
2023-03-02T11:28:21.618Z,5.10
2023-03-02T11:31:04.827Z,5.13
2023-03-02T11:34:16.718Z,5.17
2023-03-02T11:37:07.746Z,5.18
2023-03-02T11:39:55.950Z,5.35
2023-03-02T11:42:39.753Z,5.43
2023-03-02T11:45:33.701Z,5.47
2023-03-02T11:48:31.628Z,5.47
2023-03-02T11:51:23.133Z,5.44
2023-03-02T11:54:08.741Z,5.41
2023-03-02T11:56:56.663Z,5.49
2023-03-02T11:59:37.630Z,5.53
2023-03-02T12:02:25.637Z,5.59
2023-03-02T12:05:19.711Z,5.63
2023-03-02T12:08:16.629Z,5.60
2023-03-02T12:11:25.631Z,5.59
2023-03-02T12:14:05.619Z,5.61
2023-03-02T12:17:04.042Z,5.63
2023-03-02T12:19:51.632Z,5.67
2023-03-02T12:22:40.232Z,5.63
2023-03-02T12:25:26.752Z,5.68
2023-03-02T12:28:03.356Z,5.69
2023-03-02T12:30:49.675Z,5.64
2023-03-02T12:33:27.730Z,5.68
2023-03-02T12:36:21.667Z,5.68
2023-03-02T12:39:15.668Z,5.64
2023-03-02T12:42:31.671Z,5.59
2023-03-02T12:45:35.659Z,5.53
2023-03-02T12:48:33.675Z,5.50
2023-03-02T12:51:09.748Z,5.50
2023-03-02T12:54:07.662Z,5.52
2023-03-02T12:56:40.770Z,5.53
2023-03-02T12:59:31.643Z,5.57
2023-03-02T13:02:38.669Z,5.72
2023-03-02T13:05:41.677Z,5.74
2023-03-02T13:08:39.732Z,5.76
2023-03-02T13:11:37.681Z,5.69
2023-03-02T13:14:26.805Z,5.64
2023-03-02T13:17:28.673Z,5.71
2023-03-02T13:20:02.829Z,5.69
2023-03-02T13:22:49.693Z,5.80
2023-03-02T13:25:35.713Z,5.94
2023-03-02T13:28:41.665Z,5.89
2023-03-02T13:31:35.712Z,5.77
2023-03-02T13:34:31.669Z,5.79
2023-03-02T13:37:05.735Z,5.79
2023-03-02T13:40:01.739Z,5.74
2023-03-02T13:42:42.774Z,5.75
2023-03-02T13:45:36.668Z,5.75
2023-03-02T13:48:20.761Z,5.71
2023-03-02T13:51:11.669Z,5.69
2023-03-02T13:53:57.819Z,5.67
2023-03-02T13:56:50.647Z,5.66
2023-03-02T13:59:32.666Z,5.69
2023-03-02T14:02:39.668Z,5.65
2023-03-02T14:05:12.888Z,5.71
2023-03-02T14:08:01.742Z,5.73
2023-03-02T14:10:35.735Z,5.79
2023-03-02T14:13:27.708Z,5.77
2023-03-02T14:16:07.748Z,5.81
2023-03-02T14:18:57.729Z,5.86
2023-03-02T14:21:39.727Z,5.76
2023-03-02T14:24:26.617Z,5.72
2023-03-02T14:27:06.673Z,5.67
2023-03-02T14:29:55.982Z,5.63
2023-03-02T14:32:38.111Z,5.59
2023-03-02T14:35:31.683Z,5.54
2023-03-02T14:38:27.740Z,5.51
2023-03-02T14:41:30.610Z,5.49
2023-03-02T14:44:18.666Z,5.49
2023-03-02T14:46:59.723Z,5.48
2023-03-02T14:49:53.682Z,5.50
2023-03-02T14:52:47.729Z,5.47
2023-03-02T14:55:37.162Z,5.46
2023-03-02T14:58:26.694Z,5.44
2023-03-02T15:00:59.794Z,5.46
2023-03-02T15:03:46.650Z,5.41
2023-03-02T15:06:34.100Z,5.37
2023-03-02T15:09:20.668Z,5.32
2023-03-02T15:11:53.784Z,5.27
2023-03-02T15:14:40.696Z,5.20
2023-03-02T15:17:20.686Z,5.14
2023-03-02T15:20:14.677Z,5.07
2023-03-02T15:23:03.989Z,5.03
2023-03-02T15:25:38.858Z,4.97
2023-03-02T15:28:28.001Z,4.93
2023-03-02T15:31:08.712Z,4.91
2023-03-02T15:33:58.689Z,4.86
2023-03-02T15:36:31.772Z,4.78
2023-03-02T15:39:26.681Z,4.73
2023-03-02T15:42:20.674Z,4.68
2023-03-02T15:45:07.749Z,4.62
2023-03-02T15:47:49.744Z,4.56
2023-03-02T15:50:43.737Z,4.46
2023-03-02T15:53:30.695Z,4.37
2023-03-02T15:56:10.681Z,4.31
2023-03-02T15:58:57.719Z,4.22
2023-03-02T16:01:30.785Z,4.11
2023-03-02T16:04:17.736Z,4.00
2023-03-02T16:06:57.723Z,3.87
2023-03-02T16:09:44.719Z,3.72
2023-03-02T16:12:20.432Z,3.63
2023-03-02T16:15:06.741Z,3.53
2023-03-02T16:17:39.895Z,3.44
2023-03-02T16:20:26.711Z,3.31
2023-03-02T16:23:01.379Z,3.24
2023-03-02T16:25:50.712Z,3.18
2023-03-02T16:28:24.813Z,3.11
2023-03-02T16:31:14.722Z,3.08
2023-03-02T16:33:48.862Z,3.02
2023-03-02T16:36:35.728Z,2.96
2023-03-02T16:39:09.872Z,2.90
2023-03-02T16:41:57.725Z,2.84
2023-03-02T16:44:30.950Z,2.78
2023-03-02T16:47:17.729Z,2.71
2023-03-02T16:49:50.814Z,2.65
2023-03-02T16:52:37.734Z,2.56
2023-03-02T16:55:21.723Z,2.50
2023-03-02T16:58:15.742Z,2.38
2023-03-02T17:01:02.859Z,2.29
2023-03-02T17:03:35.918Z,2.19
2023-03-02T17:06:25.759Z,2.12
2023-03-02T17:08:58.822Z,2.04
2023-03-02T17:11:45.729Z,1.93
2023-03-02T17:14:18.841Z,1.84
2023-03-02T17:17:05.754Z,1.79
2023-03-02T17:19:39.836Z,1.72
2023-03-02T17:22:26.745Z,1.63
2023-03-02T17:25:01.963Z,1.58
2023-03-02T17:27:49.784Z,1.51
2023-03-02T17:30:29.770Z,1.47
2023-03-02T17:33:24.755Z,1.41
2023-03-02T17:36:13.748Z,1.34
2023-03-02T17:38:47.862Z,1.28
2023-03-02T17:41:35.786Z,1.21
2023-03-02T17:44:16.734Z,1.17
2023-03-02T17:47:03.733Z,1.13
2023-03-02T17:49:44.745Z,1.04
2023-03-02T17:52:38.724Z,1.01
2023-03-02T17:55:25.749Z,0.95
2023-03-02T17:57:58.931Z,0.89
2023-03-02T18:00:46.746Z,0.85
2023-03-02T18:03:26.810Z,0.79
2023-03-02T18:06:20.797Z,0.74
2023-03-02T18:09:07.744Z,0.68
2023-03-02T18:11:42.321Z,0.62
2023-03-02T18:14:28.756Z,0.59
2023-03-02T18:17:02.102Z,0.55
2023-03-02T18:19:48.812Z,0.52
2023-03-02T18:22:28.743Z,0.51
2023-03-02T18:25:22.871Z,0.49
2023-03-02T18:28:09.752Z,0.46
2023-03-02T18:30:49.765Z,0.41
2023-03-02T18:33:36.783Z,0.38
2023-03-02T18:36:09.893Z,0.35
2023-03-02T18:39:03.773Z,0.35
2023-03-02T18:41:57.748Z,0.29
2023-03-02T18:44:44.757Z,0.27
2023-03-02T18:47:22.890Z,0.23
2023-03-02T18:50:10.750Z,0.14
2023-03-02T18:52:50.755Z,0.10
2023-03-02T18:55:44.750Z,0.05
2023-03-02T18:58:32.314Z,0.02
2023-03-02T19:01:05.961Z,0.02
2023-03-02T19:03:52.830Z,-0.01
2023-03-02T19:06:25.890Z,-0.01
2023-03-02T19:09:12.789Z,-0.02
2023-03-02T19:11:45.875Z,-0.03
2023-03-02T19:14:32.831Z,-0.01
2023-03-02T19:17:12.764Z,-0.01
2023-03-02T19:19:59.767Z,-0.02
2023-03-02T19:22:33.488Z,-0.04
2023-03-02T19:25:19.789Z,-0.07
2023-03-02T19:27:52.928Z,-0.07
2023-03-02T19:30:40.766Z,-0.13
2023-03-02T19:33:14.872Z,-0.17
2023-03-02T19:36:01.790Z,-0.21
2023-03-02T19:38:38.031Z,-0.27
2023-03-02T19:41:26.777Z,-0.31
2023-03-02T19:44:06.792Z,-0.35
2023-03-02T19:47:00.834Z,-0.36
2023-03-02T19:49:47.775Z,-0.34
2023-03-02T19:52:27.804Z,-0.36
2023-03-02T19:55:22.781Z,-0.39
2023-03-02T19:58:11.790Z,-0.44
2023-03-02T20:00:45.032Z,-0.50
2023-03-02T20:03:31.781Z,-0.59
2023-03-02T20:06:11.772Z,-0.65
2023-03-02T20:09:05.790Z,-0.72
2023-03-02T20:11:53.813Z,-0.78
2023-03-02T20:14:34.344Z,-0.81
2023-03-02T20:17:20.814Z,-0.86
2023-03-02T20:20:02.786Z,-0.90
2023-03-02T20:22:51.798Z,-0.94
2023-03-02T20:25:25.892Z,-0.96
2023-03-02T20:28:13.798Z,-1.01
2023-03-02T20:30:59.983Z,-1.05
2023-03-02T20:33:46.804Z,-1.09
2023-03-02T20:36:36.128Z,-1.13
2023-03-02T20:39:34.946Z,-1.14
2023-03-02T20:42:39.792Z,-1.20
2023-03-02T20:45:26.804Z,-1.22
2023-03-02T20:48:07.783Z,-1.26
2023-03-02T20:51:03.827Z,-1.31
2023-03-02T20:53:53.813Z,-1.35
2023-03-02T20:56:27.982Z,-1.38
2023-03-02T20:59:14.822Z,-1.38
2023-03-02T21:01:54.819Z,-1.41
2023-03-02T21:04:48.848Z,-1.44
2023-03-02T21:07:42.811Z,-1.42
2023-03-02T21:10:34.811Z,-1.41
2023-03-02T21:13:15.812Z,-1.44
2023-03-02T21:16:02.845Z,-1.50
2023-03-02T21:18:35.946Z,-1.50
2023-03-02T21:21:32.534Z,-1.48
2023-03-02T21:24:19.824Z,-1.50
2023-03-02T21:27:07.828Z,-1.52
2023-03-02T21:29:40.908Z,-1.57
2023-03-02T21:32:27.865Z,-1.63
2023-03-02T21:35:02.519Z,-1.70
2023-03-02T21:37:49.898Z,-1.72
2023-03-02T21:40:34.800Z,-1.71
2023-03-02T21:43:28.806Z,-1.75
2023-03-02T21:46:19.951Z,-1.78
2023-03-02T21:48:53.953Z,-1.78
2023-03-02T21:51:43.822Z,-1.82
2023-03-02T21:54:23.809Z,-1.85
2023-03-02T21:57:10.852Z,-1.90
2023-03-02T21:59:50.841Z,-1.92
2023-03-02T22:02:38.985Z,-1.92
2023-03-02T22:05:12.944Z,-1.92
2023-03-02T22:07:59.885Z,-1.95
2023-03-02T22:10:58.823Z,-1.99
2023-03-02T22:13:52.846Z,-2.05
2023-03-02T22:16:42.834Z,-2.11
2023-03-02T22:19:41.810Z,-2.14
2023-03-02T22:22:33.832Z,-2.18
2023-03-02T22:25:06.922Z,-2.19
2023-03-02T22:27:53.834Z,-2.18
2023-03-02T22:30:38.831Z,-2.19
2023-03-02T22:33:38.878Z,-2.23
2023-03-02T22:36:29.830Z,-2.28
2023-03-02T22:39:11.936Z,-2.31
2023-03-02T22:42:05.850Z,-2.33
2023-03-02T22:44:38.992Z,-2.34
2023-03-02T22:47:26.847Z,-2.32
2023-03-02T22:50:28.852Z,-2.33
2023-03-02T22:53:35.882Z,-2.37
2023-03-02T22:56:56.864Z,-2.38
2023-03-02T22:59:50.844Z,-2.38
2023-03-02T23:02:37.847Z,-2.42
2023-03-02T23:05:29.003Z,-2.47
2023-03-02T23:08:29.850Z,-2.51
2023-03-02T23:11:11.847Z,-2.55
2023-03-02T23:13:59.864Z,-2.58
2023-03-02T23:16:41.909Z,-2.58
2023-03-02T23:19:28.850Z,-2.60
2023-03-02T23:22:09.850Z,-2.62
2023-03-02T23:25:03.874Z,-2.64
2023-03-02T23:27:50.856Z,-2.66
2023-03-02T23:30:23.959Z,-2.66
2023-03-02T23:33:10.850Z,-2.67
2023-03-02T23:35:44.005Z,-2.64
2023-03-02T23:38:30.867Z,-2.64
2023-03-02T23:41:03.997Z,-2.68
2023-03-02T23:43:50.852Z,-2.73
2023-03-02T23:46:30.862Z,-2.74
2023-03-02T23:49:17.850Z,-2.74
2023-03-02T23:51:58.882Z,-2.77
2023-03-02T23:54:45.856Z,-2.84
2023-03-02T23:57:25.843Z,-2.90
